sensor_id;sensor_type;location;lat;lon;timestamp;P1;durP1;ratioP1;P2;durP2;ratioP2
78402;SDS011;67687;43.508;1.504;2023-04-02T00:01:25;8.52;;;1.00;;
78402;SDS011;67687;43.508;1.504;2023-04-02T00:04:02;11.00;;;1.20;;
78402;SDS011;67687;43.508;1.504;2023-04-02T00:06:53;9.32;;;1.27;;
78402;SDS011;67687;43.508;1.504;2023-04-02T00:09:27;6.40;;;1.00;;
78402;SDS011;67687;43.508;1.504;2023-04-02T00:12:10;6.53;;;1.60;;
78402;SDS011;67687;43.508;1.504;2023-04-02T00:14:50;6.95;;;0.95;;
78402;SDS011;67687;43.508;1.504;2023-04-02T00:17:20;5.40;;;1.20;;
78402;SDS011;67687;43.508;1.504;2023-04-02T00:19:51;6.72;;;1.15;;
78402;SDS011;67687;43.508;1.504;2023-04-02T00:22:21;6.10;;;1.15;;
78402;SDS011;67687;43.508;1.504;2023-04-02T00:24:51;5.47;;;1.10;;
78402;SDS011;67687;43.508;1.504;2023-04-02T00:27:20;9.25;;;1.17;;
78402;SDS011;67687;43.508;1.504;2023-04-02T00:29:49;5.63;;;1.10;;
78402;SDS011;67687;43.508;1.504;2023-04-02T00:32:23;7.75;;;0.80;;
78402;SDS011;67687;43.508;1.504;2023-04-02T00:34:55;4.47;;;1.00;;
78402;SDS011;67687;43.508;1.504;2023-04-02T00:37:27;6.22;;;1.00;;
78402;SDS011;67687;43.508;1.504;2023-04-02T00:40:04;6.95;;;1.00;;
78402;SDS011;67687;43.508;1.504;2023-04-02T00:42:34;6.37;;;0.93;;
78402;SDS011;67687;43.508;1.504;2023-04-02T00:45:10;6.10;;;0.80;;
78402;SDS011;67687;43.508;1.504;2023-04-02T00:47:42;6.40;;;1.00;;
78402;SDS011;67687;43.508;1.504;2023-04-02T00:50:18;7.15;;;1.00;;
78402;SDS011;67687;43.508;1.504;2023-04-02T00:52:48;6.38;;;1.20;;
78402;SDS011;67687;43.508;1.504;2023-04-02T00:55:18;7.80;;;1.00;;
78402;SDS011;67687;43.508;1.504;2023-04-02T00:57:47;8.75;;;1.27;;
78402;SDS011;67687;43.508;1.504;2023-04-02T01:00:20;7.78;;;1.15;;
78402;SDS011;67687;43.508;1.504;2023-04-02T01:03:23;5.25;;;0.77;;
78402;SDS011;67687;43.508;1.504;2023-04-02T01:06:10;7.65;;;0.85;;
78402;SDS011;67687;43.508;1.504;2023-04-02T01:08:43;7.60;;;1.00;;
78402;SDS011;67687;43.508;1.504;2023-04-02T01:11:30;4.13;;;0.93;;
78402;SDS011;67687;43.508;1.504;2023-04-02T01:14:11;7.60;;;0.90;;
78402;SDS011;67687;43.508;1.504;2023-04-02T01:16:48;6.60;;;1.00;;
78402;SDS011;67687;43.508;1.504;2023-04-02T01:19:27;8.73;;;1.40;;
78402;SDS011;67687;43.508;1.504;2023-04-02T01:22:04;5.70;;;1.00;;
78402;SDS011;67687;43.508;1.504;2023-04-02T01:24:33;6.18;;;0.88;;
78402;SDS011;67687;43.508;1.504;2023-04-02T01:27:12;6.07;;;1.00;;
78402;SDS011;67687;43.508;1.504;2023-04-02T01:29:50;5.85;;;0.80;;
78402;SDS011;67687;43.508;1.504;2023-04-02T01:32:20;4.25;;;0.82;;
78402;SDS011;67687;43.508;1.504;2023-04-02T01:34:49;4.83;;;0.93;;
78402;SDS011;67687;43.508;1.504;2023-04-02T01:37:28;7.30;;;0.95;;
78402;SDS011;67687;43.508;1.504;2023-04-02T01:40:09;4.95;;;0.80;;
78402;SDS011;67687;43.508;1.504;2023-04-02T01:42:43;8.43;;;1.48;;
78402;SDS011;67687;43.508;1.504;2023-04-02T01:45:17;5.57;;;0.80;;
78402;SDS011;67687;43.508;1.504;2023-04-02T01:47:45;6.90;;;0.93;;
78402;SDS011;67687;43.508;1.504;2023-04-02T01:50:17;6.55;;;0.88;;
78402;SDS011;67687;43.508;1.504;2023-04-02T01:52:50;5.38;;;1.00;;
78402;SDS011;67687;43.508;1.504;2023-04-02T01:55:30;7.72;;;1.10;;
78402;SDS011;67687;43.508;1.504;2023-04-02T01:57:59;4.95;;;1.25;;
78402;SDS011;67687;43.508;1.504;2023-04-02T02:00:29;5.13;;;1.03;;
78402;SDS011;67687;43.508;1.504;2023-04-02T02:03:05;6.60;;;0.75;;
78402;SDS011;67687;43.508;1.504;2023-04-02T02:05:34;6.82;;;1.17;;
78402;SDS011;67687;43.508;1.504;2023-04-02T02:08:01;8.88;;;1.33;;
78402;SDS011;67687;43.508;1.504;2023-04-02T02:10:32;7.55;;;1.17;;
78402;SDS011;67687;43.508;1.504;2023-04-02T02:13:00;7.57;;;1.10;;
78402;SDS011;67687;43.508;1.504;2023-04-02T02:15:29;8.55;;;1.10;;
78402;SDS011;67687;43.508;1.504;2023-04-02T02:17:58;7.00;;;1.20;;
78402;SDS011;67687;43.508;1.504;2023-04-02T02:20:28;4.82;;;1.00;;
78402;SDS011;67687;43.508;1.504;2023-04-02T02:22:55;8.70;;;1.75;;
78402;SDS011;67687;43.508;1.504;2023-04-02T02:25:36;7.33;;;1.30;;
78402;SDS011;67687;43.508;1.504;2023-04-02T02:28:09;9.52;;;1.27;;
78402;SDS011;67687;43.508;1.504;2023-04-02T02:30:40;5.00;;;1.05;;
78402;SDS011;67687;43.508;1.504;2023-04-02T02:33:11;10.90;;;1.48;;
78402;SDS011;67687;43.508;1.504;2023-04-02T02:35:47;7.28;;;0.90;;
78402;SDS011;67687;43.508;1.504;2023-04-02T02:38:28;6.07;;;1.17;;
78402;SDS011;67687;43.508;1.504;2023-04-02T02:41:02;7.95;;;0.93;;
78402;SDS011;67687;43.508;1.504;2023-04-02T02:43:40;7.65;;;1.27;;
78402;SDS011;67687;43.508;1.504;2023-04-02T02:46:20;12.43;;;1.40;;
78402;SDS011;67687;43.508;1.504;2023-04-02T02:48:47;6.55;;;1.05;;
78402;SDS011;67687;43.508;1.504;2023-04-02T02:51:16;8.13;;;1.17;;
78402;SDS011;67687;43.508;1.504;2023-04-02T02:53:51;5.63;;;0.90;;
78402;SDS011;67687;43.508;1.504;2023-04-02T02:56:22;9.18;;;0.95;;
78402;SDS011;67687;43.508;1.504;2023-04-02T02:58:51;8.52;;;1.52;;
78402;SDS011;67687;43.508;1.504;2023-04-02T03:01:27;6.45;;;1.20;;
78402;SDS011;67687;43.508;1.504;2023-04-02T03:03:54;9.30;;;1.00;;
78402;SDS011;67687;43.508;1.504;2023-04-02T03:06:24;11.80;;;1.27;;
78402;SDS011;67687;43.508;1.504;2023-04-02T03:08:52;7.97;;;1.35;;
78402;SDS011;67687;43.508;1.504;2023-04-02T03:11:27;7.60;;;0.95;;
78402;SDS011;67687;43.508;1.504;2023-04-02T03:14:02;7.05;;;1.05;;
78402;SDS011;67687;43.508;1.504;2023-04-02T03:16:37;11.47;;;1.80;;
78402;SDS011;67687;43.508;1.504;2023-04-02T03:19:07;11.65;;;2.42;;
78402;SDS011;67687;43.508;1.504;2023-04-02T03:21:38;8.00;;;1.00;;
78402;SDS011;67687;43.508;1.504;2023-04-02T03:24:11;8.65;;;1.05;;
78402;SDS011;67687;43.508;1.504;2023-04-02T03:26:43;7.30;;;1.23;;
78402;SDS011;67687;43.508;1.504;2023-04-02T03:29:14;8.20;;;1.20;;
78402;SDS011;67687;43.508;1.504;2023-04-02T03:31:45;8.90;;;1.25;;
78402;SDS011;67687;43.508;1.504;2023-04-02T03:34:17;8.73;;;1.50;;
78402;SDS011;67687;43.508;1.504;2023-04-02T03:36:50;10.07;;;1.52;;
78402;SDS011;67687;43.508;1.504;2023-04-02T03:39:23;8.27;;;1.23;;
78402;SDS011;67687;43.508;1.504;2023-04-02T03:41:53;6.47;;;1.10;;
78402;SDS011;67687;43.508;1.504;2023-04-02T03:44:23;8.80;;;1.35;;
78402;SDS011;67687;43.508;1.504;2023-04-02T03:46:54;11.75;;;1.55;;
78402;SDS011;67687;43.508;1.504;2023-04-02T03:49:25;9.23;;;1.83;;
78402;SDS011;67687;43.508;1.504;2023-04-02T03:51:56;5.03;;;1.10;;
78402;SDS011;67687;43.508;1.504;2023-04-02T03:54:24;6.33;;;1.10;;
78402;SDS011;67687;43.508;1.504;2023-04-02T03:56:51;9.35;;;1.50;;
78402;SDS011;67687;43.508;1.504;2023-04-02T03:59:19;9.25;;;1.60;;
78402;SDS011;67687;43.508;1.504;2023-04-02T04:01:54;11.18;;;1.17;;
78402;SDS011;67687;43.508;1.504;2023-04-02T04:04:25;9.18;;;1.73;;
78402;SDS011;67687;43.508;1.504;2023-04-02T04:06:54;11.40;;;1.60;;
78402;SDS011;67687;43.508;1.504;2023-04-02T04:09:24;8.38;;;1.25;;
78402;SDS011;67687;43.508;1.504;2023-04-02T04:11:58;7.60;;;1.48;;
78402;SDS011;67687;43.508;1.504;2023-04-02T04:14:38;11.75;;;1.58;;
78402;SDS011;67687;43.508;1.504;2023-04-02T04:17:13;8.57;;;1.10;;
78402;SDS011;67687;43.508;1.504;2023-04-02T04:19:42;11.10;;;1.80;;
78402;SDS011;67687;43.508;1.504;2023-04-02T04:22:14;12.90;;;1.38;;
78402;SDS011;67687;43.508;1.504;2023-04-02T04:24:55;9.35;;;1.35;;
78402;SDS011;67687;43.508;1.504;2023-04-02T04:27:32;8.05;;;1.50;;
78402;SDS011;67687;43.508;1.504;2023-04-02T04:30:03;9.07;;;2.15;;
78402;SDS011;67687;43.508;1.504;2023-04-02T04:32:36;10.43;;;1.67;;
78402;SDS011;67687;43.508;1.504;2023-04-02T04:35:07;8.02;;;1.60;;
78402;SDS011;67687;43.508;1.504;2023-04-02T04:37:43;10.77;;;2.20;;
78402;SDS011;67687;43.508;1.504;2023-04-02T04:40:18;9.18;;;1.70;;
78402;SDS011;67687;43.508;1.504;2023-04-02T04:42:48;13.40;;;2.08;;
78402;SDS011;67687;43.508;1.504;2023-04-02T04:45:24;9.20;;;1.50;;
78402;SDS011;67687;43.508;1.504;2023-04-02T04:48:01;11.63;;;2.00;;
78402;SDS011;67687;43.508;1.504;2023-04-02T04:50:36;10.88;;;1.90;;
78402;SDS011;67687;43.508;1.504;2023-04-02T04:53:05;11.27;;;1.52;;
78402;SDS011;67687;43.508;1.504;2023-04-02T04:55:39;12.10;;;1.90;;
78402;SDS011;67687;43.508;1.504;2023-04-02T04:58:11;10.43;;;1.47;;
78402;SDS011;67687;43.508;1.504;2023-04-02T05:00:45;11.07;;;1.73;;
78402;SDS011;67687;43.508;1.504;2023-04-02T05:03:21;11.52;;;2.05;;
78402;SDS011;67687;43.508;1.504;2023-04-02T05:05:57;14.80;;;1.70;;
78402;SDS011;67687;43.508;1.504;2023-04-02T05:08:33;13.27;;;1.70;;
78402;SDS011;67687;43.508;1.504;2023-04-02T05:11:05;9.90;;;1.83;;
78402;SDS011;67687;43.508;1.504;2023-04-02T05:13:38;13.43;;;1.88;;
78402;SDS011;67687;43.508;1.504;2023-04-02T05:16:09;11.35;;;1.58;;
78402;SDS011;67687;43.508;1.504;2023-04-02T05:18:42;14.52;;;1.80;;
78402;SDS011;67687;43.508;1.504;2023-04-02T05:21:13;15.85;;;1.95;;
78402;SDS011;67687;43.508;1.504;2023-04-02T05:23:45;14.10;;;2.03;;
78402;SDS011;67687;43.508;1.504;2023-04-02T05:26:14;14.23;;;1.83;;
78402;SDS011;67687;43.508;1.504;2023-04-02T05:28:46;14.88;;;2.28;;
78402;SDS011;67687;43.508;1.504;2023-04-02T05:31:17;13.82;;;1.73;;
78402;SDS011;67687;43.508;1.504;2023-04-02T05:33:47;13.82;;;1.88;;
78402;SDS011;67687;43.508;1.504;2023-04-02T05:36:20;10.83;;;1.80;;
78402;SDS011;67687;43.508;1.504;2023-04-02T05:38:48;14.60;;;1.52;;
78402;SDS011;67687;43.508;1.504;2023-04-02T05:41:20;8.38;;;1.50;;
78402;SDS011;67687;43.508;1.504;2023-04-02T05:44:01;11.50;;;2.00;;
78402;SDS011;67687;43.508;1.504;2023-04-02T05:46:33;11.35;;;2.78;;
78402;SDS011;67687;43.508;1.504;2023-04-02T05:49:03;11.47;;;1.83;;
78402;SDS011;67687;43.508;1.504;2023-04-02T05:51:34;9.10;;;1.65;;
78402;SDS011;67687;43.508;1.504;2023-04-02T05:54:04;13.23;;;1.88;;
78402;SDS011;67687;43.508;1.504;2023-04-02T05:56:33;14.55;;;1.92;;
78402;SDS011;67687;43.508;1.504;2023-04-02T05:59:03;12.85;;;2.05;;
78402;SDS011;67687;43.508;1.504;2023-04-02T06:01:35;11.50;;;2.07;;
78402;SDS011;67687;43.508;1.504;2023-04-02T06:04:12;13.07;;;1.80;;
78402;SDS011;67687;43.508;1.504;2023-04-02T06:06:45;10.23;;;2.15;;
78402;SDS011;67687;43.508;1.504;2023-04-02T06:09:16;16.92;;;1.95;;
78402;SDS011;67687;43.508;1.504;2023-04-02T06:11:46;14.85;;;2.25;;
78402;SDS011;67687;43.508;1.504;2023-04-02T06:14:17;8.27;;;1.60;;
78402;SDS011;67687;43.508;1.504;2023-04-02T06:16:44;13.85;;;1.85;;
78402;SDS011;67687;43.508;1.504;2023-04-02T06:19:14;8.70;;;2.15;;
78402;SDS011;67687;43.508;1.504;2023-04-02T06:21:44;11.65;;;2.10;;
78402;SDS011;67687;43.508;1.504;2023-04-02T06:24:14;14.63;;;2.60;;
78402;SDS011;67687;43.508;1.504;2023-04-02T06:26:43;12.93;;;2.90;;
78402;SDS011;67687;43.508;1.504;2023-04-02T06:29:12;14.95;;;2.20;;
78402;SDS011;67687;43.508;1.504;2023-04-02T06:31:53;14.82;;;1.83;;
78402;SDS011;67687;43.508;1.504;2023-04-02T06:34:23;13.65;;;2.28;;
78402;SDS011;67687;43.508;1.504;2023-04-02T06:36:53;13.43;;;1.80;;
78402;SDS011;67687;43.508;1.504;2023-04-02T06:39:22;10.07;;;2.17;;
78402;SDS011;67687;43.508;1.504;2023-04-02T06:41:53;11.55;;;1.70;;
78402;SDS011;67687;43.508;1.504;2023-04-02T06:44:22;15.25;;;2.50;;
78402;SDS011;67687;43.508;1.504;2023-04-02T06:46:52;15.63;;;2.00;;
78402;SDS011;67687;43.508;1.504;2023-04-02T06:49:24;13.20;;;2.10;;
78402;SDS011;67687;43.508;1.504;2023-04-02T06:51:54;14.80;;;1.97;;
78402;SDS011;67687;43.508;1.504;2023-04-02T06:54:22;13.50;;;3.08;;
78402;SDS011;67687;43.508;1.504;2023-04-02T06:56:49;12.27;;;1.80;;
78402;SDS011;67687;43.508;1.504;2023-04-02T06:59:17;14.05;;;2.08;;
78402;SDS011;67687;43.508;1.504;2023-04-02T07:01:45;13.80;;;2.35;;
78402;SDS011;67687;43.508;1.504;2023-04-02T07:04:15;12.17;;;2.00;;
78402;SDS011;67687;43.508;1.504;2023-04-02T07:06:44;11.20;;;1.73;;
78402;SDS011;67687;43.508;1.504;2023-04-02T07:09:11;14.35;;;2.30;;
78402;SDS011;67687;43.508;1.504;2023-04-02T07:11:38;17.52;;;2.17;;
78402;SDS011;67687;43.508;1.504;2023-04-02T07:14:05;14.40;;;2.08;;
78402;SDS011;67687;43.508;1.504;2023-04-02T07:16:32;10.93;;;2.07;;
78402;SDS011;67687;43.508;1.504;2023-04-02T07:19:00;12.57;;;2.03;;
78402;SDS011;67687;43.508;1.504;2023-04-02T07:21:28;8.40;;;2.03;;
78402;SDS011;67687;43.508;1.504;2023-04-02T07:23:57;11.18;;;2.38;;
78402;SDS011;67687;43.508;1.504;2023-04-02T07:26:26;13.23;;;2.00;;
78402;SDS011;67687;43.508;1.504;2023-04-02T07:28:53;14.40;;;2.73;;
78402;SDS011;67687;43.508;1.504;2023-04-02T07:31:21;11.20;;;2.00;;
78402;SDS011;67687;43.508;1.504;2023-04-02T07:33:50;8.25;;;2.20;;
78402;SDS011;67687;43.508;1.504;2023-04-02T07:36:18;11.50;;;2.08;;
78402;SDS011;67687;43.508;1.504;2023-04-02T07:38:45;12.45;;;2.40;;
78402;SDS011;67687;43.508;1.504;2023-04-02T07:41:14;9.27;;;2.07;;
78402;SDS011;67687;43.508;1.504;2023-04-02T07:43:41;14.65;;;2.22;;
78402;SDS011;67687;43.508;1.504;2023-04-02T07:46:08;11.88;;;2.05;;
78402;SDS011;67687;43.508;1.504;2023-04-02T07:48:35;11.23;;;1.88;;
78402;SDS011;67687;43.508;1.504;2023-04-02T07:51:02;11.25;;;1.90;;
78402;SDS011;67687;43.508;1.504;2023-04-02T07:53:30;9.47;;;2.00;;
78402;SDS011;67687;43.508;1.504;2023-04-02T07:55:58;10.98;;;2.42;;
78402;SDS011;67687;43.508;1.504;2023-04-02T07:58:28;10.50;;;2.15;;
78402;SDS011;67687;43.508;1.504;2023-04-02T08:00:55;9.30;;;2.30;;
78402;SDS011;67687;43.508;1.504;2023-04-02T08:03:22;13.25;;;2.53;;
78402;SDS011;67687;43.508;1.504;2023-04-02T08:05:49;16.27;;;1.90;;
78402;SDS011;67687;43.508;1.504;2023-04-02T08:08:17;14.35;;;2.35;;
78402;SDS011;67687;43.508;1.504;2023-04-02T08:10:44;7.90;;;2.25;;
78402;SDS011;67687;43.508;1.504;2023-04-02T08:13:11;15.25;;;2.10;;
78402;SDS011;67687;43.508;1.504;2023-04-02T08:15:39;15.98;;;2.58;;
78402;SDS011;67687;43.508;1.504;2023-04-02T08:18:06;11.20;;;2.33;;
78402;SDS011;67687;43.508;1.504;2023-04-02T08:20:33;13.25;;;2.15;;
78402;SDS011;67687;43.508;1.504;2023-04-02T08:23:00;9.52;;;1.83;;
78402;SDS011;67687;43.508;1.504;2023-04-02T08:25:28;12.65;;;2.33;;
78402;SDS011;67687;43.508;1.504;2023-04-02T08:27:55;11.50;;;2.20;;
78402;SDS011;67687;43.508;1.504;2023-04-02T08:30:22;11.77;;;2.27;;
78402;SDS011;67687;43.508;1.504;2023-04-02T08:32:50;6.93;;;1.58;;
78402;SDS011;67687;43.508;1.504;2023-04-02T08:35:17;12.23;;;2.30;;
78402;SDS011;67687;43.508;1.504;2023-04-02T08:37:44;10.35;;;1.98;;
78402;SDS011;67687;43.508;1.504;2023-04-02T08:40:17;11.38;;;2.08;;
78402;SDS011;67687;43.508;1.504;2023-04-02T08:42:48;10.13;;;1.70;;
78402;SDS011;67687;43.508;1.504;2023-04-02T08:45:23;9.90;;;2.10;;
78402;SDS011;67687;43.508;1.504;2023-04-02T08:48:00;10.52;;;2.00;;
78402;SDS011;67687;43.508;1.504;2023-04-02T08:50:28;11.68;;;2.05;;
78402;SDS011;67687;43.508;1.504;2023-04-02T08:52:57;10.25;;;2.00;;
78402;SDS011;67687;43.508;1.504;2023-04-02T08:55:26;12.07;;;2.80;;
78402;SDS011;67687;43.508;1.504;2023-04-02T08:57:59;12.45;;;2.58;;
78402;SDS011;67687;43.508;1.504;2023-04-02T09:00:30;11.75;;;2.50;;
78402;SDS011;67687;43.508;1.504;2023-04-02T09:03:04;9.55;;;1.65;;
78402;SDS011;67687;43.508;1.504;2023-04-02T09:05:36;8.90;;;2.17;;
78402;SDS011;67687;43.508;1.504;2023-04-02T09:08:08;10.63;;;1.70;;
78402;SDS011;67687;43.508;1.504;2023-04-02T09:10:41;10.05;;;2.40;;
78402;SDS011;67687;43.508;1.504;2023-04-02T09:13:15;8.93;;;1.55;;
78402;SDS011;67687;43.508;1.504;2023-04-02T09:15:44;7.05;;;1.48;;
78402;SDS011;67687;43.508;1.504;2023-04-02T09:18:13;9.23;;;1.95;;
78402;SDS011;67687;43.508;1.504;2023-04-02T09:20:42;8.37;;;1.93;;
78402;SDS011;67687;43.508;1.504;2023-04-02T09:23:10;12.30;;;1.90;;
78402;SDS011;67687;43.508;1.504;2023-04-02T09:25:41;10.40;;;1.70;;
78402;SDS011;67687;43.508;1.504;2023-04-02T09:28:12;10.68;;;2.15;;
78402;SDS011;67687;43.508;1.504;2023-04-02T09:30:43;7.93;;;1.90;;
78402;SDS011;67687;43.508;1.504;2023-04-02T09:33:25;10.87;;;2.00;;
78402;SDS011;67687;43.508;1.504;2023-04-02T09:36:07;9.43;;;1.80;;
78402;SDS011;67687;43.508;1.504;2023-04-02T09:38:58;8.88;;;1.83;;
78402;SDS011;67687;43.508;1.504;2023-04-02T09:41:30;11.85;;;2.30;;
78402;SDS011;67687;43.508;1.504;2023-04-02T09:44:09;8.13;;;2.50;;
78402;SDS011;67687;43.508;1.504;2023-04-02T09:46:45;8.53;;;2.00;;
78402;SDS011;67687;43.508;1.504;2023-04-02T09:49:15;6.53;;;1.90;;
78402;SDS011;67687;43.508;1.504;2023-04-02T09:51:43;8.20;;;1.50;;
78402;SDS011;67687;43.508;1.504;2023-04-02T09:54:11;8.30;;;2.05;;
78402;SDS011;67687;43.508;1.504;2023-04-02T09:56:40;8.95;;;1.70;;
78402;SDS011;67687;43.508;1.504;2023-04-02T09:59:25;8.23;;;1.90;;
78402;SDS011;67687;43.508;1.504;2023-04-02T10:01:56;6.03;;;1.50;;
78402;SDS011;67687;43.508;1.504;2023-04-02T10:04:34;7.70;;;1.77;;
78402;SDS011;67687;43.508;1.504;2023-04-02T10:07:28;5.68;;;1.17;;
78402;SDS011;67687;43.508;1.504;2023-04-02T10:09:58;9.55;;;1.90;;
78402;SDS011;67687;43.508;1.504;2023-04-02T10:12:28;4.97;;;1.47;;
78402;SDS011;67687;43.508;1.504;2023-04-02T10:14:55;5.05;;;1.50;;
78402;SDS011;67687;43.508;1.504;2023-04-02T10:17:31;5.78;;;1.70;;
78402;SDS011;67687;43.508;1.504;2023-04-02T10:20:13;4.50;;;1.30;;
78402;SDS011;67687;43.508;1.504;2023-04-02T10:22:43;3.95;;;1.33;;
78402;SDS011;67687;43.508;1.504;2023-04-02T10:25:13;7.40;;;1.43;;
78402;SDS011;67687;43.508;1.504;2023-04-02T10:27:52;5.60;;;1.20;;
78402;SDS011;67687;43.508;1.504;2023-04-02T10:30:25;4.65;;;1.42;;
78402;SDS011;67687;43.508;1.504;2023-04-02T10:32:58;6.30;;;1.50;;
78402;SDS011;67687;43.508;1.504;2023-04-02T10:35:39;5.18;;;1.30;;
78402;SDS011;67687;43.508;1.504;2023-04-02T10:38:14;5.57;;;1.37;;
78402;SDS011;67687;43.508;1.504;2023-04-02T10:41:20;4.10;;;1.25;;
78402;SDS011;67687;43.508;1.504;2023-04-02T10:43:59;5.32;;;1.50;;
78402;SDS011;67687;43.508;1.504;2023-04-02T10:46:33;5.88;;;1.27;;
78402;SDS011;67687;43.508;1.504;2023-04-02T10:49:08;4.15;;;1.15;;
78402;SDS011;67687;43.508;1.504;2023-04-02T10:51:42;4.63;;;1.20;;
78402;SDS011;67687;43.508;1.504;2023-04-02T10:54:21;4.57;;;1.15;;
78402;SDS011;67687;43.508;1.504;2023-04-02T10:56:59;5.03;;;0.98;;
78402;SDS011;67687;43.508;1.504;2023-04-02T10:59:36;4.68;;;1.20;;
78402;SDS011;67687;43.508;1.504;2023-04-02T11:02:21;4.70;;;1.10;;
78402;SDS011;67687;43.508;1.504;2023-04-02T11:04:56;3.10;;;0.90;;
78402;SDS011;67687;43.508;1.504;2023-04-02T11:07:30;4.30;;;0.93;;
78402;SDS011;67687;43.508;1.504;2023-04-02T11:09:58;5.22;;;0.90;;
78402;SDS011;67687;43.508;1.504;2023-04-02T11:12:33;4.03;;;1.00;;
78402;SDS011;67687;43.508;1.504;2023-04-02T11:15:08;3.65;;;1.00;;
78402;SDS011;67687;43.508;1.504;2023-04-02T11:17:43;2.30;;;0.67;;
78402;SDS011;67687;43.508;1.504;2023-04-02T11:23:32;4.15;;;0.90;;
78402;SDS011;67687;43.508;1.504;2023-04-02T11:26:29;3.58;;;0.80;;
78402;SDS011;67687;43.508;1.504;2023-04-02T11:29:18;3.88;;;1.10;;
78402;SDS011;67687;43.508;1.504;2023-04-02T11:38:38;4.97;;;1.40;;
78402;SDS011;67687;43.508;1.504;2023-04-02T11:41:27;5.15;;;1.38;;
78402;SDS011;67687;43.508;1.504;2023-04-02T11:44:34;5.65;;;1.20;;
78402;SDS011;67687;43.508;1.504;2023-04-02T11:47:15;4.43;;;1.37;;
78402;SDS011;67687;43.508;1.504;2023-04-02T11:52:34;5.00;;;1.52;;
78402;SDS011;67687;43.508;1.504;2023-04-02T11:55:23;4.72;;;1.33;;
78402;SDS011;67687;43.508;1.504;2023-04-02T12:07:24;4.22;;;1.52;;
78402;SDS011;67687;43.508;1.504;2023-04-02T12:10:14;5.20;;;1.50;;
78402;SDS011;67687;43.508;1.504;2023-04-02T12:12:43;8.50;;;2.10;;
78402;SDS011;67687;43.508;1.504;2023-04-02T12:18:02;4.25;;;1.45;;
78402;SDS011;67687;43.508;1.504;2023-04-02T12:20:31;3.92;;;1.30;;
78402;SDS011;67687;43.508;1.504;2023-04-02T12:22:58;3.20;;;1.00;;
78402;SDS011;67687;43.508;1.504;2023-04-02T12:25:25;3.00;;;1.23;;
78402;SDS011;67687;43.508;1.504;2023-04-02T12:28:05;2.63;;;1.20;;
78402;SDS011;67687;43.508;1.504;2023-04-02T12:30:39;2.97;;;0.75;;
78402;SDS011;67687;43.508;1.504;2023-04-02T12:33:13;3.05;;;0.90;;
78402;SDS011;67687;43.508;1.504;2023-04-02T12:35:41;3.25;;;0.80;;
78402;SDS011;67687;43.508;1.504;2023-04-02T12:38:17;2.58;;;0.98;;
78402;SDS011;67687;43.508;1.504;2023-04-02T12:40:50;3.87;;;0.90;;
78402;SDS011;67687;43.508;1.504;2023-04-02T12:43:24;2.97;;;1.02;;
78402;SDS011;67687;43.508;1.504;2023-04-02T12:45:54;3.50;;;1.30;;
78402;SDS011;67687;43.508;1.504;2023-04-02T12:48:22;3.67;;;1.42;;
78402;SDS011;67687;43.508;1.504;2023-04-02T12:50:50;2.65;;;1.13;;
78402;SDS011;67687;43.508;1.504;2023-04-02T12:53:18;4.67;;;1.40;;
78402;SDS011;67687;43.508;1.504;2023-04-02T12:55:47;3.55;;;1.05;;
78402;SDS011;67687;43.508;1.504;2023-04-02T12:58:22;3.85;;;1.42;;
78402;SDS011;67687;43.508;1.504;2023-04-02T13:03:38;3.35;;;1.35;;
78402;SDS011;67687;43.508;1.504;2023-04-02T13:06:15;3.40;;;1.60;;
78402;SDS011;67687;43.508;1.504;2023-04-02T13:08:45;3.28;;;1.08;;
78402;SDS011;67687;43.508;1.504;2023-04-02T13:11:12;3.05;;;1.27;;
78402;SDS011;67687;43.508;1.504;2023-04-02T13:13:39;3.05;;;1.10;;
78402;SDS011;67687;43.508;1.504;2023-04-02T13:16:23;2.45;;;0.80;;
78402;SDS011;67687;43.508;1.504;2023-04-02T13:21:52;3.28;;;0.90;;
78402;SDS011;67687;43.508;1.504;2023-04-02T13:24:20;4.45;;;1.25;;
78402;SDS011;67687;43.508;1.504;2023-04-02T13:26:48;2.88;;;1.10;;
78402;SDS011;67687;43.508;1.504;2023-04-02T13:29:20;2.55;;;0.90;;
78402;SDS011;67687;43.508;1.504;2023-04-02T13:31:50;3.10;;;1.00;;
78402;SDS011;67687;43.508;1.504;2023-04-02T13:34:18;2.88;;;1.00;;
78402;SDS011;67687;43.508;1.504;2023-04-02T13:36:45;2.78;;;1.08;;
78402;SDS011;67687;43.508;1.504;2023-04-02T13:39:12;2.75;;;1.00;;
78402;SDS011;67687;43.508;1.504;2023-04-02T13:41:39;2.65;;;1.10;;
78402;SDS011;67687;43.508;1.504;2023-04-02T13:44:13;2.67;;;0.90;;
78402;SDS011;67687;43.508;1.504;2023-04-02T13:46:44;3.63;;;1.10;;
78402;SDS011;67687;43.508;1.504;2023-04-02T13:49:13;3.08;;;1.25;;
78402;SDS011;67687;43.508;1.504;2023-04-02T13:51:40;3.20;;;1.27;;
78402;SDS011;67687;43.508;1.504;2023-04-02T13:54:11;3.83;;;1.30;;
78402;SDS011;67687;43.508;1.504;2023-04-02T13:56:42;3.20;;;1.20;;
78402;SDS011;67687;43.508;1.504;2023-04-02T13:59:09;3.35;;;1.20;;
78402;SDS011;67687;43.508;1.504;2023-04-02T14:01:36;2.92;;;1.50;;
78402;SDS011;67687;43.508;1.504;2023-04-02T14:04:03;3.63;;;1.30;;
78402;SDS011;67687;43.508;1.504;2023-04-02T14:06:38;3.58;;;1.35;;
78402;SDS011;67687;43.508;1.504;2023-04-02T14:09:17;4.07;;;1.30;;
78402;SDS011;67687;43.508;1.504;2023-04-02T14:11:49;3.88;;;1.55;;
78402;SDS011;67687;43.508;1.504;2023-04-02T14:17:10;3.67;;;1.90;;
78402;SDS011;67687;43.508;1.504;2023-04-02T14:19:47;4.05;;;1.90;;
78402;SDS011;67687;43.508;1.504;2023-04-02T14:22:25;4.93;;;2.33;;
78402;SDS011;67687;43.508;1.504;2023-04-02T14:24:59;4.55;;;2.17;;
78402;SDS011;67687;43.508;1.504;2023-04-02T14:27:34;4.85;;;2.35;;
78402;SDS011;67687;43.508;1.504;2023-04-02T14:30:07;3.58;;;1.90;;
78402;SDS011;67687;43.508;1.504;2023-04-02T14:32:37;4.45;;;2.08;;
78402;SDS011;67687;43.508;1.504;2023-04-02T14:35:12;5.30;;;2.10;;
78402;SDS011;67687;43.508;1.504;2023-04-02T14:37:47;5.30;;;1.70;;
78402;SDS011;67687;43.508;1.504;2023-04-02T14:40:18;4.60;;;1.65;;
78402;SDS011;67687;43.508;1.504;2023-04-02T14:42:50;3.72;;;1.13;;
78402;SDS011;67687;43.508;1.504;2023-04-02T14:45:22;3.00;;;1.30;;
78402;SDS011;67687;43.508;1.504;2023-04-02T14:47:56;3.50;;;1.10;;
78402;SDS011;67687;43.508;1.504;2023-04-02T14:50:27;2.85;;;1.00;;
78402;SDS011;67687;43.508;1.504;2023-04-02T14:52:59;3.05;;;1.17;;
78402;SDS011;67687;43.508;1.504;2023-04-02T14:55:30;3.28;;;1.00;;
78402;SDS011;67687;43.508;1.504;2023-04-02T14:58:00;3.10;;;1.20;;
78402;SDS011;67687;43.508;1.504;2023-04-02T15:00:30;4.00;;;1.20;;
78402;SDS011;67687;43.508;1.504;2023-04-02T15:03:02;3.70;;;1.20;;
78402;SDS011;67687;43.508;1.504;2023-04-02T15:05:34;3.55;;;1.55;;
78402;SDS011;67687;43.508;1.504;2023-04-02T15:08:08;5.18;;;1.30;;
78402;SDS011;67687;43.508;1.504;2023-04-02T15:10:40;4.03;;;1.40;;
78402;SDS011;67687;43.508;1.504;2023-04-02T15:13:15;4.37;;;1.77;;
78402;SDS011;67687;43.508;1.504;2023-04-02T15:15:45;4.10;;;1.60;;
78402;SDS011;67687;43.508;1.504;2023-04-02T15:18:14;3.50;;;1.52;;
78402;SDS011;67687;43.508;1.504;2023-04-02T15:20:44;3.72;;;1.80;;
78402;SDS011;67687;43.508;1.504;2023-04-02T15:23:19;3.75;;;1.50;;
78402;SDS011;67687;43.508;1.504;2023-04-02T15:25:54;3.87;;;1.47;;
78402;SDS011;67687;43.508;1.504;2023-04-02T15:28:27;4.60;;;1.80;;
78402;SDS011;67687;43.508;1.504;2023-04-02T15:30:56;4.38;;;1.60;;
78402;SDS011;67687;43.508;1.504;2023-04-02T15:33:33;4.38;;;2.03;;
78402;SDS011;67687;43.508;1.504;2023-04-02T15:36:11;3.60;;;1.45;;
78402;SDS011;67687;43.508;1.504;2023-04-02T15:38:57;5.03;;;1.80;;
78402;SDS011;67687;43.508;1.504;2023-04-02T15:41:29;5.70;;;2.00;;
78402;SDS011;67687;43.508;1.504;2023-04-02T15:43:59;3.30;;;1.50;;
78402;SDS011;67687;43.508;1.504;2023-04-02T15:46:30;4.95;;;2.00;;
78402;SDS011;67687;43.508;1.504;2023-04-02T15:49:04;4.97;;;1.80;;